Thrapston, United Kingdom
Current Conditions -  °F | °C
As of 11:50 AM on Saturday 20 Dec 2014 (Local Time) from EGXT Reporting Station
Broken Clouds Broken Clouds  
Wind Chill: 39°   Ceiling: 2700
Heat Index: 46°   Visibility: 6mi
Dew Point: 39°   Wind: 18mph
Humidity: 76%   Direction: 280°W
Pressure: 30.21"   Gusts: NA
Location:  52.4°N, 0.54°W
Report Text: EGXT 201150Z AUTO 28016KT 9999 BKN027/// 08/04 Q1023
Loading
Personal Weather Stations






























Interactive Weather Map New forecast layout! Learn more

10-Day Weather Forecast

Advertisements
Track Severe Weather on mobile